sensor_id;sensor_type;location;lat;lon;timestamp;pressure;altitude;pressure_sealevel;temperature;humidity
18749;BME280;9503;53.560;10.246;2023-11-18T00:00:54;101723.66;;;10.11;74.85
18749;BME280;9503;53.560;10.246;2023-11-18T00:03:21;101723.66;;;10.11;74.70
18749;BME280;9503;53.560;10.246;2023-11-18T00:05:47;101730.50;;;10.23;75.32
18749;BME280;9503;53.560;10.246;2023-11-18T00:08:14;101735.16;;;10.29;74.39
18749;BME280;9503;53.560;10.246;2023-11-18T00:10:41;101725.78;;;10.30;74.68
18749;BME280;9503;53.560;10.246;2023-11-18T00:13:08;101724.81;;;10.41;74.14
18749;BME280;9503;53.560;10.246;2023-11-18T00:15:36;101729.03;;;10.40;74.48
18749;BME280;9503;53.560;10.246;2023-11-18T00:18:02;101730.41;;;10.35;74.19
18749;BME280;9503;53.560;10.246;2023-11-18T00:20:29;101727.47;;;10.29;74.22
18749;BME280;9503;53.560;10.246;2023-11-18T00:22:56;101722.72;;;10.48;74.34
18749;BME280;9503;53.560;10.246;2023-11-18T00:25:22;101713.38;;;10.36;74.31
18749;BME280;9503;53.560;10.246;2023-11-18T00:27:49;101716.94;;;10.38;73.52
18749;BME280;9503;53.560;10.246;2023-11-18T00:30:16;101719.00;;;10.30;74.56
18749;BME280;9503;53.560;10.246;2023-11-18T00:32:44;101715.81;;;10.34;73.91
18749;BME280;9503;53.560;10.246;2023-11-18T00:35:10;101711.72;;;10.36;74.61
18749;BME280;9503;53.560;10.246;2023-11-18T00:37:37;101709.41;;;10.41;73.98
18749;BME280;9503;53.560;10.246;2023-11-18T00:40:05;101707.88;;;10.43;73.70
18749;BME280;9503;53.560;10.246;2023-11-18T00:42:32;101716.53;;;10.45;73.82
18749;BME280;9503;53.560;10.246;2023-11-18T00:44:58;101717.81;;;10.38;73.66
18749;BME280;9503;53.560;10.246;2023-11-18T00:47:25;101716.94;;;10.38;73.68
18749;BME280;9503;53.560;10.246;2023-11-18T00:49:53;101708.25;;;10.36;74.65
18749;BME280;9503;53.560;10.246;2023-11-18T00:52:20;101711.31;;;10.30;74.18
18749;BME280;9503;53.560;10.246;2023-11-18T00:54:46;101708.25;;;10.36;74.54
18749;BME280;9503;53.560;10.246;2023-11-18T00:57:13;101719.00;;;10.43;74.20
18749;BME280;9503;53.560;10.246;2023-11-18T00:59:41;101716.31;;;10.42;74.30
18749;BME280;9503;53.560;10.246;2023-11-18T01:02:08;101720.56;;;10.41;74.43
18749;BME280;9503;53.560;10.246;2023-11-18T01:04:35;101721.75;;;10.33;75.04
18749;BME280;9503;53.560;10.246;2023-11-18T01:07:03;101719.66;;;10.41;74.52
18749;BME280;9503;53.560;10.246;2023-11-18T01:09:29;101719.66;;;10.41;74.11
18749;BME280;9503;53.560;10.246;2023-11-18T01:12:02;101725.19;;;10.34;74.77
18749;BME280;9503;53.560;10.246;2023-11-18T01:14:29;101730.53;;;10.37;74.83
18749;BME280;9503;53.560;10.246;2023-11-18T01:16:55;101723.03;;;10.40;74.58
18749;BME280;9503;53.560;10.246;2023-11-18T01:19:22;101718.00;;;10.41;74.47
18749;BME280;9503;53.560;10.246;2023-11-18T01:21:49;101718.69;;;10.39;74.97
18749;BME280;9503;53.560;10.246;2023-11-18T01:24:19;101719.97;;;10.45;74.45
18749;BME280;9503;53.560;10.246;2023-11-18T01:26:47;101724.00;;;10.42;74.75
18749;BME280;9503;53.560;10.246;2023-11-18T01:29:13;101733.97;;;10.37;74.42
18749;BME280;9503;53.560;10.246;2023-11-18T01:31:40;101734.47;;;10.45;74.23
18749;BME280;9503;53.560;10.246;2023-11-18T01:34:07;101731.06;;;10.19;74.72
18749;BME280;9503;53.560;10.246;2023-11-18T01:36:34;101736.47;;;10.11;75.42
18749;BME280;9503;53.560;10.246;2023-11-18T01:39:00;101737.81;;;10.31;75.35
18749;BME280;9503;53.560;10.246;2023-11-18T01:41:29;101729.75;;;10.38;74.66
18749;BME280;9503;53.560;10.246;2023-11-18T01:43:57;101735.66;;;10.37;75.10
18749;BME280;9503;53.560;10.246;2023-11-18T01:46:24;101741.19;;;10.05;76.00
18749;BME280;9503;53.560;10.246;2023-11-18T01:48:52;101737.56;;;10.14;76.26
18749;BME280;9503;53.560;10.246;2023-11-18T01:51:19;101735.66;;;10.37;75.89
18749;BME280;9503;53.560;10.246;2023-11-18T01:53:47;101729.47;;;10.08;76.15
18749;BME280;9503;53.560;10.246;2023-11-18T01:56:15;101729.63;;;10.23;76.11
18749;BME280;9503;53.560;10.246;2023-11-18T01:58:43;101736.16;;;10.31;75.23
18749;BME280;9503;53.560;10.246;2023-11-18T02:01:11;101727.84;;;10.35;74.96
18749;BME280;9503;53.560;10.246;2023-11-18T02:03:41;101725.19;;;10.34;75.62
18749;BME280;9503;53.560;10.246;2023-11-18T02:06:08;101727.28;;;10.39;75.19
18749;BME280;9503;53.560;10.246;2023-11-18T02:08:36;101723.63;;;10.36;75.04
18749;BME280;9503;53.560;10.246;2023-11-18T02:11:10;101730.28;;;9.82;75.85
18749;BME280;9503;53.560;10.246;2023-11-18T02:13:41;101738.69;;;9.55;78.70
18749;BME280;9503;53.560;10.246;2023-11-18T02:16:13;101742.50;;;9.48;80.27
18749;BME280;9503;53.560;10.246;2023-11-18T02:18:41;101744.94;;;9.72;77.43
18749;BME280;9503;53.560;10.246;2023-11-18T02:21:10;101745.09;;;9.36;78.82
18749;BME280;9503;53.560;10.246;2023-11-18T02:23:40;101747.63;;;9.48;79.66
18749;BME280;9503;53.560;10.246;2023-11-18T02:26:08;101745.72;;;9.46;79.41
18749;BME280;9503;53.560;10.246;2023-11-18T02:28:35;101741.91;;;9.77;78.36
18749;BME280;9503;53.560;10.246;2023-11-18T02:31:05;101744.88;;;9.58;78.82
18749;BME280;9503;53.560;10.246;2023-11-18T02:33:36;101750.41;;;9.39;79.60
18749;BME280;9503;53.560;10.246;2023-11-18T02:36:10;101759.41;;;9.46;79.66
18749;BME280;9503;53.560;10.246;2023-11-18T02:38:50;101760.94;;;9.19;80.72
18749;BME280;9503;53.560;10.246;2023-11-18T02:41:20;101769.25;;;9.28;80.21
18749;BME280;9503;53.560;10.246;2023-11-18T02:43:47;101769.28;;;9.53;79.94
18749;BME280;9503;53.560;10.246;2023-11-18T02:46:14;101763.34;;;9.66;78.69
18749;BME280;9503;53.560;10.246;2023-11-18T02:48:41;101768.41;;;9.78;78.89
18749;BME280;9503;53.560;10.246;2023-11-18T02:51:08;101779.38;;;9.88;78.10
18749;BME280;9503;53.560;10.246;2023-11-18T02:53:37;101783.00;;;10.17;76.96
18749;BME280;9503;53.560;10.246;2023-11-18T02:56:07;101780.19;;;9.76;77.75
18749;BME280;9503;53.560;10.246;2023-11-18T02:58:35;101776.13;;;9.66;78.52
18749;BME280;9503;53.560;10.246;2023-11-18T03:01:02;101772.47;;;9.87;78.66
18749;BME280;9503;53.560;10.246;2023-11-18T03:03:30;101770.09;;;9.77;78.58
18749;BME280;9503;53.560;10.246;2023-11-18T03:05:56;101776.56;;;9.72;78.56
18749;BME280;9503;53.560;10.246;2023-11-18T03:08:25;101782.06;;;9.53;78.74
18749;BME280;9503;53.560;10.246;2023-11-18T03:10:54;101775.63;;;9.58;79.71
18749;BME280;9503;53.560;10.246;2023-11-18T03:13:20;101779.75;;;9.81;78.43
18749;BME280;9503;53.560;10.246;2023-11-18T03:15:49;101784.97;;;10.08;77.92
18749;BME280;9503;53.560;10.246;2023-11-18T03:18:17;101781.00;;;9.75;78.78
18749;BME280;9503;53.560;10.246;2023-11-18T03:20:44;101775.78;;;9.73;79.10
18749;BME280;9503;53.560;10.246;2023-11-18T03:23:10;101776.13;;;9.66;78.57
18749;BME280;9503;53.560;10.246;2023-11-18T03:25:37;101777.59;;;9.87;78.89
18749;BME280;9503;53.560;10.246;2023-11-18T03:28:04;101771.38;;;9.84;78.51
18749;BME280;9503;53.560;10.246;2023-11-18T03:30:32;101771.25;;;10.07;78.08
18749;BME280;9503;53.560;10.246;2023-11-18T03:33:02;101761.22;;;10.10;78.46
18749;BME280;9503;53.560;10.246;2023-11-18T03:35:29;101769.31;;;9.91;78.28
18749;BME280;9503;53.560;10.246;2023-11-18T03:37:55;101766.84;;;9.55;79.98
18749;BME280;9503;53.560;10.246;2023-11-18T03:40:22;101773.72;;;9.81;78.47
18749;BME280;9503;53.560;10.246;2023-11-18T03:42:49;101764.75;;;9.99;79.29
18749;BME280;9503;53.560;10.246;2023-11-18T03:45:15;101765.31;;;10.33;77.58
18749;BME280;9503;53.560;10.246;2023-11-18T03:47:43;101761.38;;;10.38;77.44
18749;BME280;9503;53.560;10.246;2023-11-18T03:50:12;101763.72;;;10.35;76.64
18749;BME280;9503;53.560;10.246;2023-11-18T03:52:39;101766.75;;;10.16;77.26
18749;BME280;9503;53.560;10.246;2023-11-18T03:55:06;101771.38;;;9.84;79.05
18749;BME280;9503;53.560;10.246;2023-11-18T03:57:33;101771.16;;;9.81;79.88
18749;BME280;9503;53.560;10.246;2023-11-18T04:00:00;101772.00;;;9.93;78.76
18749;BME280;9503;53.560;10.246;2023-11-18T04:02:28;101777.88;;;10.17;77.98
18749;BME280;9503;53.560;10.246;2023-11-18T04:04:54;101783.56;;;10.13;78.30
18749;BME280;9503;53.560;10.246;2023-11-18T04:07:22;101785.38;;;10.14;78.43
18749;BME280;9503;53.560;10.246;2023-11-18T04:09:49;101794.66;;;9.87;79.15
18749;BME280;9503;53.560;10.246;2023-11-18T04:12:16;101788.84;;;9.89;79.27
18749;BME280;9503;53.560;10.246;2023-11-18T04:14:42;101795.91;;;10.18;78.18
18749;BME280;9503;53.560;10.246;2023-11-18T04:17:09;101785.41;;;10.27;77.46
18749;BME280;9503;53.560;10.246;2023-11-18T04:19:35;101783.94;;;10.06;77.47
18749;BME280;9503;53.560;10.246;2023-11-18T04:22:02;101776.88;;;10.40;77.78
18749;BME280;9503;53.560;10.246;2023-11-18T04:24:31;101786.63;;;9.82;78.67
18749;BME280;9503;53.560;10.246;2023-11-18T04:26:57;101786.97;;;9.87;79.08
18749;BME280;9503;53.560;10.246;2023-11-18T04:29:24;101788.63;;;9.61;80.01
18749;BME280;9503;53.560;10.246;2023-11-18T04:31:51;101785.59;;;9.92;79.54
18749;BME280;9503;53.560;10.246;2023-11-18T04:34:18;101783.03;;;9.30;80.83
18749;BME280;9503;53.560;10.246;2023-11-18T04:36:45;101787.69;;;9.73;80.23
18749;BME280;9503;53.560;10.246;2023-11-18T04:39:11;101780.63;;;9.57;80.64
18749;BME280;9503;53.560;10.246;2023-11-18T04:41:42;101781.09;;;9.76;80.61
18749;BME280;9503;53.560;10.246;2023-11-18T04:44:09;101781.19;;;10.03;79.07
18749;BME280;9503;53.560;10.246;2023-11-18T04:46:35;101770.03;;;10.27;78.68
18749;BME280;9503;53.560;10.246;2023-11-18T04:49:02;101771.03;;;10.42;77.30
18749;BME280;9503;53.560;10.246;2023-11-18T04:51:28;101781.22;;;10.67;76.91
18749;BME280;9503;53.560;10.246;2023-11-18T04:53:55;101777.97;;;10.70;76.35
18749;BME280;9503;53.560;10.246;2023-11-18T04:56:21;101778.44;;;10.77;75.70
18749;BME280;9503;53.560;10.246;2023-11-18T04:58:49;101779.16;;;10.62;75.69
18749;BME280;9503;53.560;10.246;2023-11-18T05:01:16;101785.16;;;10.36;76.66
18749;BME280;9503;53.560;10.246;2023-11-18T05:03:43;101781.81;;;10.12;77.40
18749;BME280;9503;53.560;10.246;2023-11-18T05:06:10;101780.91;;;10.36;77.15
18749;BME280;9503;53.560;10.246;2023-11-18T05:08:36;101787.22;;;10.41;77.29
18749;BME280;9503;53.560;10.246;2023-11-18T05:11:03;101776.28;;;10.44;76.45
18749;BME280;9503;53.560;10.246;2023-11-18T05:13:30;101779.75;;;10.44;76.08
18749;BME280;9503;53.560;10.246;2023-11-18T05:15:59;101778.16;;;10.46;76.87
18749;BME280;9503;53.560;10.246;2023-11-18T05:18:25;101773.81;;;10.45;76.75
18749;BME280;9503;53.560;10.246;2023-11-18T05:20:54;101766.81;;;10.43;76.57
18749;BME280;9503;53.560;10.246;2023-11-18T05:23:22;101753.22;;;10.44;76.56
18749;BME280;9503;53.560;10.246;2023-11-18T05:25:49;101755.66;;;10.42;76.21
18749;BME280;9503;53.560;10.246;2023-11-18T05:28:15;101749.13;;;10.21;76.50
18749;BME280;9503;53.560;10.246;2023-11-18T05:30:42;101739.09;;;10.24;76.85
18749;BME280;9503;53.560;10.246;2023-11-18T05:33:10;101736.88;;;10.17;76.92
18749;BME280;9503;53.560;10.246;2023-11-18T05:35:42;101740.78;;;10.23;76.03
18749;BME280;9503;53.560;10.246;2023-11-18T05:38:14;101740.41;;;10.19;76.31
18749;BME280;9503;53.560;10.246;2023-11-18T05:40:42;101736.56;;;10.12;76.49
18749;BME280;9503;53.560;10.246;2023-11-18T05:43:15;101738.66;;;10.18;76.01
18749;BME280;9503;53.560;10.246;2023-11-18T05:45:45;101736.69;;;10.14;76.31
18749;BME280;9503;53.560;10.246;2023-11-18T05:48:33;101735.78;;;10.00;76.62
18749;BME280;9503;53.560;10.246;2023-11-18T05:51:00;101734.88;;;10.13;76.55
18749;BME280;9503;53.560;10.246;2023-11-18T05:53:27;101743.19;;;10.09;76.15
18749;BME280;9503;53.560;10.246;2023-11-18T05:55:54;101737.44;;;10.13;76.09
18749;BME280;9503;53.560;10.246;2023-11-18T05:58:21;101735.91;;;10.15;76.55
18749;BME280;9503;53.560;10.246;2023-11-18T06:00:47;101742.00;;;10.17;76.62
18749;BME280;9503;53.560;10.246;2023-11-18T06:03:14;101729.88;;;10.14;76.48
18749;BME280;9503;53.560;10.246;2023-11-18T06:05:43;101735.69;;;10.12;76.21
18749;BME280;9503;53.560;10.246;2023-11-18T06:08:10;101728.09;;;10.13;75.90
18749;BME280;9503;53.560;10.246;2023-11-18T06:10:37;101724.44;;;10.10;75.77
18749;BME280;9503;53.560;10.246;2023-11-18T06:13:04;101719.50;;;10.13;76.07
18749;BME280;9503;53.560;10.246;2023-11-18T06:15:31;101728.50;;;10.06;75.57
18749;BME280;9503;53.560;10.246;2023-11-18T06:17:58;101728.47;;;9.93;77.04
18749;BME280;9503;53.560;10.246;2023-11-18T06:20:24;101732.31;;;10.00;76.38
18749;BME280;9503;53.560;10.246;2023-11-18T06:22:52;101736.84;;;10.04;76.33
18749;BME280;9503;53.560;10.246;2023-11-18T06:25:19;101743.56;;;10.02;76.75
18749;BME280;9503;53.560;10.246;2023-11-18T06:27:45;101742.16;;;9.44;78.01
18749;BME280;9503;53.560;10.246;2023-11-18T06:30:13;101737.34;;;9.73;78.00
18749;BME280;9503;53.560;10.246;2023-11-18T06:32:41;101738.34;;;9.75;76.81
18749;BME280;9503;53.560;10.246;2023-11-18T06:35:07;101732.75;;;9.81;76.65
18749;BME280;9503;53.560;10.246;2023-11-18T06:37:34;101735.69;;;9.74;76.85
18749;BME280;9503;53.560;10.246;2023-11-18T06:40:03;101741.41;;;9.69;77.35
18749;BME280;9503;53.560;10.246;2023-11-18T06:42:41;101738.88;;;9.58;77.47
18749;BME280;9503;53.560;10.246;2023-11-18T06:45:09;101738.19;;;9.60;77.23
18749;BME280;9503;53.560;10.246;2023-11-18T06:47:35;101739.31;;;9.64;77.72
18749;BME280;9503;53.560;10.246;2023-11-18T06:50:03;101744.44;;;9.64;77.33
18749;BME280;9503;53.560;10.246;2023-11-18T06:52:30;101745.88;;;9.60;77.08
18749;BME280;9503;53.560;10.246;2023-11-18T06:54:57;101741.78;;;9.62;76.50
18749;BME280;9503;53.560;10.246;2023-11-18T06:57:25;101741.63;;;9.61;77.17
18749;BME280;9503;53.560;10.246;2023-11-18T06:59:52;101741.34;;;9.56;76.39
18749;BME280;9503;53.560;10.246;2023-11-18T07:02:18;101757.63;;;9.45;77.03
18749;BME280;9503;53.560;10.246;2023-11-18T07:04:46;101754.16;;;9.20;77.41
18749;BME280;9503;53.560;10.246;2023-11-18T07:07:12;101752.34;;;9.30;77.22
18749;BME280;9503;53.560;10.246;2023-11-18T07:09:39;101756.38;;;9.15;77.88
18749;BME280;9503;53.560;10.246;2023-11-18T07:12:06;101764.25;;;9.30;78.64
18749;BME280;9503;53.560;10.246;2023-11-18T07:14:34;101772.03;;;9.31;78.19
18749;BME280;9503;53.560;10.246;2023-11-18T07:17:01;101788.13;;;9.42;78.59
18749;BME280;9503;53.560;10.246;2023-11-18T07:19:30;101793.81;;;9.38;78.47
18749;BME280;9503;53.560;10.246;2023-11-18T07:21:58;101792.22;;;9.52;78.79
18749;BME280;9503;53.560;10.246;2023-11-18T07:24:25;101797.78;;;9.58;78.00
18749;BME280;9503;53.560;10.246;2023-11-18T07:26:52;101801.22;;;9.58;77.91
18749;BME280;9503;53.560;10.246;2023-11-18T07:29:19;101797.84;;;9.71;77.90
18749;BME280;9503;53.560;10.246;2023-11-18T07:31:49;101805.81;;;9.51;78.08
18749;BME280;9503;53.560;10.246;2023-11-18T07:34:16;101801.91;;;9.07;78.97
18749;BME280;9503;53.560;10.246;2023-11-18T07:36:43;101801.25;;;8.75;81.50
18749;BME280;9503;53.560;10.246;2023-11-18T07:39:11;101796.72;;;9.43;79.11
18749;BME280;9503;53.560;10.246;2023-11-18T07:41:41;101795.38;;;9.48;79.02
18749;BME280;9503;53.560;10.246;2023-11-18T07:44:07;101787.06;;;9.63;78.37
18749;BME280;9503;53.560;10.246;2023-11-18T07:46:35;101781.56;;;9.46;78.13
18749;BME280;9503;53.560;10.246;2023-11-18T07:49:05;101790.38;;;9.37;78.29
18749;BME280;9503;53.560;10.246;2023-11-18T07:51:31;101790.72;;;9.30;78.37
18749;BME280;9503;53.560;10.246;2023-11-18T07:53:58;101806.34;;;9.47;78.32
18749;BME280;9503;53.560;10.246;2023-11-18T07:56:25;101805.66;;;9.61;77.80
18749;BME280;9503;53.560;10.246;2023-11-18T07:58:52;101807.97;;;9.69;77.49
18749;BME280;9503;53.560;10.246;2023-11-18T08:01:19;101798.25;;;9.77;76.99
18749;BME280;9503;53.560;10.246;2023-11-18T08:03:46;101797.47;;;9.78;77.04
18749;BME280;9503;53.560;10.246;2023-11-18T08:06:15;101806.56;;;9.86;77.37
18749;BME280;9503;53.560;10.246;2023-11-18T08:08:42;101800.03;;;9.78;76.77
18749;BME280;9503;53.560;10.246;2023-11-18T08:11:10;101793.28;;;9.92;75.78
18749;BME280;9503;53.560;10.246;2023-11-18T08:13:37;101784.34;;;10.12;76.05
18749;BME280;9503;53.560;10.246;2023-11-18T08:16:04;101793.06;;;10.14;75.40
18749;BME280;9503;53.560;10.246;2023-11-18T08:18:32;101787.34;;;10.18;74.50
18749;BME280;9503;53.560;10.246;2023-11-18T08:20:59;101792.69;;;9.96;75.21
18749;BME280;9503;53.560;10.246;2023-11-18T08:23:28;101802.84;;;9.94;74.23
18749;BME280;9503;53.560;10.246;2023-11-18T08:25:55;101804.13;;;9.76;74.71
18749;BME280;9503;53.560;10.246;2023-11-18T08:28:22;101801.06;;;9.93;75.05
18749;BME280;9503;53.560;10.246;2023-11-18T08:30:49;101805.63;;;10.22;74.64
18749;BME280;9503;53.560;10.246;2023-11-18T08:33:16;101811.59;;;10.48;74.81
18749;BME280;9503;53.560;10.246;2023-11-18T08:35:43;101815.56;;;10.83;74.31
18749;BME280;9503;53.560;10.246;2023-11-18T08:38:10;101800.34;;;10.86;72.53
18749;BME280;9503;53.560;10.246;2023-11-18T08:40:39;101797.06;;;11.01;71.70
18749;BME280;9503;53.560;10.246;2023-11-18T08:43:08;101794.31;;;11.12;71.46
18749;BME280;9503;53.560;10.246;2023-11-18T08:45:35;101779.72;;;10.97;71.08
18749;BME280;9503;53.560;10.246;2023-11-18T08:48:03;101780.22;;;11.05;71.23
18749;BME280;9503;53.560;10.246;2023-11-18T08:50:32;101769.38;;;11.09;71.61
18749;BME280;9503;53.560;10.246;2023-11-18T08:52:59;101773.97;;;11.01;71.95
18749;BME280;9503;53.560;10.246;2023-11-18T08:55:30;101770.59;;;11.16;71.56
18749;BME280;9503;53.560;10.246;2023-11-18T08:58:06;101771.50;;;11.16;71.69
18749;BME280;9503;53.560;10.246;2023-11-18T09:00:44;101775.31;;;11.23;70.79
18749;BME280;9503;53.560;10.246;2023-11-18T09:03:20;101777.84;;;11.49;70.29
18749;BME280;9503;53.560;10.246;2023-11-18T09:05:55;101773.81;;;11.68;69.48
18749;BME280;9503;53.560;10.246;2023-11-18T09:08:29;101769.47;;;11.67;68.49
18749;BME280;9503;53.560;10.246;2023-11-18T09:10:57;101768.44;;;12.06;68.50
18749;BME280;9503;53.560;10.246;2023-11-18T09:13:26;101767.19;;;11.99;67.53
18749;BME280;9503;53.560;10.246;2023-11-18T09:15:54;101766.97;;;11.96;67.33
18749;BME280;9503;53.560;10.246;2023-11-18T09:18:22;101761.53;;;12.34;66.57
18749;BME280;9503;53.560;10.246;2023-11-18T09:20:50;101766.69;;;12.20;66.26
18749;BME280;9503;53.560;10.246;2023-11-18T09:23:17;101763.97;;;12.33;66.22
18749;BME280;9503;53.560;10.246;2023-11-18T09:25:45;101756.72;;;12.11;66.09
18749;BME280;9503;53.560;10.246;2023-11-18T09:28:14;101751.47;;;11.95;66.08
18749;BME280;9503;53.560;10.246;2023-11-18T09:30:42;101752.28;;;11.66;66.86
18749;BME280;9503;53.560;10.246;2023-11-18T09:33:18;101748.81;;;11.65;67.21
18749;BME280;9503;53.560;10.246;2023-11-18T09:35:54;101741.25;;;10.84;69.42
18749;BME280;9503;53.560;10.246;2023-11-18T09:38:25;101747.03;;;11.08;69.53
18749;BME280;9503;53.560;10.246;2023-11-18T09:40:54;101739.31;;;11.21;69.35
18749;BME280;9503;53.560;10.246;2023-11-18T09:43:20;101739.66;;;10.99;69.75
18749;BME280;9503;53.560;10.246;2023-11-18T09:45:54;101736.34;;;10.74;71.44
18749;BME280;9503;53.560;10.246;2023-11-18T09:48:21;101742.31;;;11.01;70.84
18749;BME280;9503;53.560;10.246;2023-11-18T09:50:52;101738.19;;;11.31;70.24
18749;BME280;9503;53.560;10.246;2023-11-18T09:53:19;101744.84;;;11.14;70.39
18749;BME280;9503;53.560;10.246;2023-11-18T09:55:55;101735.53;;;11.57;69.07
18749;BME280;9503;53.560;10.246;2023-11-18T09:58:29;101734.78;;;11.45;68.91
18749;BME280;9503;53.560;10.246;2023-11-18T10:01:03;101727.03;;;11.30;69.21
18749;BME280;9503;53.560;10.246;2023-11-18T10:03:30;101727.34;;;11.78;67.61
18749;BME280;9503;53.560;10.246;2023-11-18T10:05:57;101725.19;;;11.99;67.05
18749;BME280;9503;53.560;10.246;2023-11-18T10:08:30;101729.50;;;12.14;66.52
18749;BME280;9503;53.560;10.246;2023-11-18T10:10:57;101731.44;;;12.18;65.36
18749;BME280;9503;53.560;10.246;2023-11-18T10:13:34;101723.53;;;12.45;64.64
18749;BME280;9503;53.560;10.246;2023-11-18T10:16:08;101720.91;;;12.29;64.58
18749;BME280;9503;53.560;10.246;2023-11-18T10:18:34;101720.09;;;12.30;64.33
18749;BME280;9503;53.560;10.246;2023-11-18T10:21:02;101724.09;;;11.95;64.78
18749;BME280;9503;53.560;10.246;2023-11-18T10:23:33;101731.63;;;12.51;63.43
18749;BME280;9503;53.560;10.246;2023-11-18T10:26:03;101726.66;;;12.70;62.68
18749;BME280;9503;53.560;10.246;2023-11-18T10:28:31;101726.31;;;12.79;62.62
18749;BME280;9503;53.560;10.246;2023-11-18T10:31:00;101716.97;;;12.50;63.11
18749;BME280;9503;53.560;10.246;2023-11-18T10:33:31;101713.44;;;12.33;62.83
18749;BME280;9503;53.560;10.246;2023-11-18T10:35:59;101698.38;;;12.25;62.18
18749;BME280;9503;53.560;10.246;2023-11-18T10:38:29;101695.25;;;12.45;61.63
18749;BME280;9503;53.560;10.246;2023-11-18T10:40:57;101695.34;;;12.32;61.77
18749;BME280;9503;53.560;10.246;2023-11-18T10:43:25;101685.38;;;12.07;61.36
18749;BME280;9503;53.560;10.246;2023-11-18T10:46:04;101684.28;;;12.03;61.96
18749;BME280;9503;53.560;10.246;2023-11-18T10:48:39;101689.03;;;12.56;61.72
18749;BME280;9503;53.560;10.246;2023-11-18T10:51:07;101694.84;;;12.68;61.38
18749;BME280;9503;53.560;10.246;2023-11-18T10:53:37;101693.03;;;12.51;61.22
18749;BME280;9503;53.560;10.246;2023-11-18T10:56:04;101687.84;;;12.66;61.83
18749;BME280;9503;53.560;10.246;2023-11-18T10:58:35;101678.34;;;13.12;61.11
18749;BME280;9503;53.560;10.246;2023-11-18T11:01:03;101679.13;;;13.11;60.43
18749;BME280;9503;53.560;10.246;2023-11-18T11:03:30;101680.13;;;12.66;60.77
18749;BME280;9503;53.560;10.246;2023-11-18T11:06:15;101665.03;;;12.88;61.33
18749;BME280;9503;53.560;10.246;2023-11-18T11:08:43;101661.81;;;12.76;61.36
18749;BME280;9503;53.560;10.246;2023-11-18T11:11:10;101647.84;;;12.87;61.47
18749;BME280;9503;53.560;10.246;2023-11-18T11:13:42;101649.94;;;12.78;61.74
18749;BME280;9503;53.560;10.246;2023-11-18T11:16:12;101644.06;;;12.81;61.67
18749;BME280;9503;53.560;10.246;2023-11-18T11:18:47;101638.44;;;12.88;61.09
18749;BME280;9503;53.560;10.246;2023-11-18T11:21:22;101638.22;;;12.68;61.83
18749;BME280;9503;53.560;10.246;2023-11-18T11:23:55;101623.69;;;12.69;61.51
18749;BME280;9503;53.560;10.246;2023-11-18T11:26:39;101630.28;;;12.33;62.23
18749;BME280;9503;53.560;10.246;2023-11-18T11:29:18;101628.50;;;12.63;62.18
18749;BME280;9503;53.560;10.246;2023-11-18T11:34:39;101619.88;;;12.62;61.83
18749;BME280;9503;53.560;10.246;2023-11-18T11:37:10;101603.09;;;12.69;60.70
18749;BME280;9503;53.560;10.246;2023-11-18T11:39:40;101595.41;;;13.02;60.32
18749;BME280;9503;53.560;10.246;2023-11-18T11:42:13;101596.44;;;12.89;60.40
18749;BME280;9503;53.560;10.246;2023-11-18T11:44:43;101591.47;;;13.24;60.00
18749;BME280;9503;53.560;10.246;2023-11-18T11:47:10;101598.03;;;13.36;59.32
18749;BME280;9503;53.560;10.246;2023-11-18T11:49:54;101596.28;;;13.02;59.25
18749;BME280;9503;53.560;10.246;2023-11-18T11:52:27;101593.53;;;12.50;59.72
18749;BME280;9503;53.560;10.246;2023-11-18T11:54:59;101603.03;;;12.67;59.56
18749;BME280;9503;53.560;10.246;2023-11-18T11:57:28;101593.59;;;12.68;59.67
18749;BME280;9503;53.560;10.246;2023-11-18T11:59:55;101585.81;;;12.50;59.58
18749;BME280;9503;53.560;10.246;2023-11-18T12:02:26;101586.03;;;12.55;59.67
18749;BME280;9503;53.560;10.246;2023-11-18T12:04:55;101596.41;;;12.25;60.33
18749;BME280;9503;53.560;10.246;2023-11-18T12:07:26;101587.38;;;12.48;60.68
18749;BME280;9503;53.560;10.246;2023-11-18T12:09:57;101583.25;;;12.04;61.26
18749;BME280;9503;53.560;10.246;2023-11-18T12:12:25;101579.88;;;12.20;61.55
18749;BME280;9503;53.560;10.246;2023-11-18T12:14:54;101576.69;;;12.40;61.54
18749;BME280;9503;53.560;10.246;2023-11-18T12:17:26;101564.91;;;12.60;60.79
18749;BME280;9503;53.560;10.246;2023-11-18T12:19:57;101566.38;;;12.88;60.34
18749;BME280;9503;53.560;10.246;2023-11-18T12:22:26;101561.78;;;12.66;60.76
18749;BME280;9503;53.560;10.246;2023-11-18T12:27:57;101569.53;;;12.35;60.80
18749;BME280;9503;53.560;10.246;2023-11-18T12:30:40;101578.03;;;12.65;60.80
18749;BME280;9503;53.560;10.246;2023-11-18T12:33:18;101582.13;;;12.30;61.23
18749;BME280;9503;53.560;10.246;2023-11-18T12:42:03;101562.38;;;12.29;61.40
18749;BME280;9503;53.560;10.246;2023-11-18T12:44:36;101557.72;;;12.38;61.24
18749;BME280;9503;53.560;10.246;2023-11-18T12:47:05;101560.63;;;12.61;60.98
18749;BME280;9503;53.560;10.246;2023-11-18T12:49:40;101569.69;;;12.38;61.08
18749;BME280;9503;53.560;10.246;2023-11-18T12:52:08;101565.38;;;12.06;61.89
18749;BME280;9503;53.560;10.246;2023-11-18T12:54:36;101558.75;;;11.95;61.95
18749;BME280;9503;53.560;10.246;2023-11-18T12:57:06;101561.34;;;12.11;62.07
18749;BME280;9503;53.560;10.246;2023-11-18T12:59:33;101557.19;;;12.13;61.99
18749;BME280;9503;53.560;10.246;2023-11-18T13:01:59;101557.91;;;12.41;61.77
18749;BME280;9503;53.560;10.246;2023-11-18T13:04:29;101568.41;;;12.46;61.60
18749;BME280;9503;53.560;10.246;2023-11-18T13:06:56;101560.94;;;12.34;61.66
18749;BME280;9503;53.560;10.246;2023-11-18T13:09:23;101554.34;;;12.39;61.79
18749;BME280;9503;53.560;10.246;2023-11-18T13:11:54;101549.06;;;12.36;61.98